createdAt,value
2023-05-07T00:01:06.746Z,93.63
2023-05-07T00:03:34.243Z,93.28
2023-05-07T00:06:01.238Z,93.51
2023-05-07T00:08:32.667Z,92.89
2023-05-07T00:10:59.564Z,91.23
2023-05-07T00:13:26.560Z,90.67
2023-05-07T00:15:53.510Z,91.31
2023-05-07T00:18:23.419Z,92.57
2023-05-07T00:20:50.319Z,92.57
2023-05-07T00:23:17.236Z,92.74
2023-05-07T00:25:44.151Z,90.83
2023-05-07T00:28:10.971Z,89.08
2023-05-07T00:30:40.494Z,89.45
2023-05-07T00:33:07.450Z,90.04
2023-05-07T00:35:36.802Z,90.90
2023-05-07T00:38:05.753Z,91.67
2023-05-07T00:40:32.724Z,91.04
2023-05-07T00:43:00.837Z,90.14
2023-05-07T00:45:30.960Z,89.47
2023-05-07T00:48:02.124Z,86.96
2023-05-07T00:50:32.717Z,89.39
2023-05-07T00:53:00.947Z,88.78
2023-05-07T00:55:32.830Z,88.93
2023-05-07T00:57:59.805Z,90.43
2023-05-07T01:00:26.753Z,89.52
2023-05-07T01:02:53.980Z,87.62
2023-05-07T01:05:24.718Z,87.37
2023-05-07T01:07:56.765Z,88.46
2023-05-07T01:10:26.177Z,90.03
2023-05-07T01:12:55.934Z,90.63
2023-05-07T01:15:22.870Z,91.47
2023-05-07T01:17:49.871Z,91.69
2023-05-07T01:20:16.857Z,91.55
2023-05-07T01:22:44.767Z,91.28
2023-05-07T01:25:14.673Z,89.72
2023-05-07T01:27:41.636Z,88.41
2023-05-07T01:30:09.480Z,88.15
2023-05-07T01:32:57.673Z,89.30
2023-05-07T01:35:30.701Z,88.59
2023-05-07T01:37:57.974Z,87.50
2023-05-07T01:40:31.214Z,89.07
2023-05-07T01:42:58.400Z,88.86
2023-05-07T01:45:28.801Z,87.93
2023-05-07T01:47:57.054Z,87.98
2023-05-07T01:50:24.499Z,87.36
2023-05-07T01:52:56.664Z,88.49
2023-05-07T01:55:25.943Z,88.67
2023-05-07T01:57:52.771Z,90.55
2023-05-07T02:00:20.403Z,90.92
2023-05-07T02:02:47.406Z,89.66
2023-05-07T02:05:16.752Z,88.58
2023-05-07T02:07:43.598Z,87.86
2023-05-07T02:10:11.152Z,88.84
2023-05-07T02:12:40.730Z,89.63
2023-05-07T02:15:08.339Z,90.01
2023-05-07T02:17:36.589Z,90.58
2023-05-07T02:20:06.023Z,90.28
2023-05-07T02:22:35.339Z,89.87
2023-05-07T02:25:02.155Z,89.88
2023-05-07T02:27:29.018Z,89.52
2023-05-07T02:29:56.035Z,89.28
2023-05-07T02:32:27.720Z,88.73
2023-05-07T02:34:54.746Z,88.84
2023-05-07T02:37:23.696Z,88.53
2023-05-07T02:39:57.626Z,88.11
2023-05-07T02:42:24.460Z,87.57
2023-05-07T02:44:53.463Z,86.97
2023-05-07T02:47:20.379Z,86.26
2023-05-07T02:49:47.258Z,88.41
2023-05-07T02:52:18.795Z,87.86
2023-05-07T02:54:45.639Z,87.84
2023-05-07T02:57:12.509Z,88.17
2023-05-07T02:59:43.908Z,87.32
2023-05-07T03:02:11.156Z,86.11
2023-05-07T03:04:39.200Z,86.95
2023-05-07T03:07:08.254Z,86.67
2023-05-07T03:09:38.207Z,88.39
2023-05-07T03:12:05.349Z,88.01
2023-05-07T03:14:32.212Z,87.59
2023-05-07T03:17:02.422Z,86.47
2023-05-07T03:19:32.336Z,86.99
2023-05-07T03:21:59.321Z,86.61
2023-05-07T03:24:28.806Z,86.74
2023-05-07T03:26:55.726Z,85.43
2023-05-07T03:29:22.577Z,86.07
2023-05-07T03:31:49.569Z,85.78
2023-05-07T03:34:17.945Z,86.79
2023-05-07T03:36:46.987Z,86.59
2023-05-07T03:39:16.331Z,88.50
2023-05-07T03:41:45.856Z,88.46
2023-05-07T03:44:12.780Z,88.09
2023-05-07T03:46:39.670Z,87.63
2023-05-07T03:49:06.568Z,89.00
2023-05-07T03:51:36.979Z,91.08
2023-05-07T03:54:06.132Z,89.96
2023-05-07T03:56:35.263Z,89.50
2023-05-07T03:59:02.703Z,91.16
2023-05-07T04:01:29.945Z,89.91
2023-05-07T04:03:58.039Z,88.81
2023-05-07T04:06:28.571Z,89.08
2023-05-07T04:08:55.377Z,90.61
2023-05-07T04:11:22.322Z,90.66
2023-05-07T04:13:51.674Z,90.08
2023-05-07T04:16:18.564Z,89.08
2023-05-07T04:18:45.425Z,90.15
2023-05-07T04:21:21.971Z,90.84
2023-05-07T04:23:54.919Z,90.15
2023-05-07T04:26:22.294Z,90.49
2023-05-07T04:28:51.677Z,89.69
2023-05-07T04:31:18.656Z,88.69
2023-05-07T04:33:45.827Z,87.91
2023-05-07T04:36:12.724Z,89.20
2023-05-07T04:38:39.735Z,88.28
2023-05-07T04:41:07.943Z,88.08
2023-05-07T04:43:37.020Z,88.75
2023-05-07T04:46:03.891Z,88.62
2023-05-07T04:48:32.905Z,89.45
2023-05-07T04:50:59.745Z,87.00
2023-05-07T04:53:28.843Z,87.52
2023-05-07T04:55:59.082Z,88.46
2023-05-07T04:58:28.594Z,88.65
2023-05-07T05:00:55.737Z,87.61
2023-05-07T05:03:22.810Z,86.57
2023-05-07T05:05:53.900Z,87.77
2023-05-07T05:08:21.094Z,87.97
2023-05-07T05:10:49.758Z,88.20
2023-05-07T05:13:16.740Z,88.39
2023-05-07T05:15:46.688Z,88.68
2023-05-07T05:18:16.218Z,88.04
2023-05-07T05:20:45.548Z,87.52
2023-05-07T05:23:14.548Z,87.97
2023-05-07T05:25:41.506Z,86.51
2023-05-07T05:28:15.456Z,86.44
2023-05-07T05:30:46.978Z,86.20
2023-05-07T05:33:15.879Z,87.40
2023-05-07T05:35:43.411Z,87.43
2023-05-07T05:38:12.406Z,87.37
2023-05-07T05:40:39.288Z,88.02
2023-05-07T05:43:07.071Z,89.13
2023-05-07T05:45:36.527Z,87.79
2023-05-07T05:48:03.492Z,87.04
2023-05-07T05:50:30.414Z,86.70
2023-05-07T05:52:57.752Z,88.11
2023-05-07T05:55:26.890Z,87.35
2023-05-07T05:57:53.867Z,86.98
2023-05-07T06:00:23.441Z,85.67
2023-05-07T06:02:50.613Z,86.65
2023-05-07T06:05:17.798Z,86.13
2023-05-07T06:07:47.255Z,86.44
2023-05-07T06:10:14.330Z,86.65
2023-05-07T06:12:41.458Z,87.93
2023-05-07T06:15:11.444Z,87.55
2023-05-07T06:17:40.930Z,87.25
2023-05-07T06:20:08.852Z,87.92
2023-05-07T06:22:40.626Z,89.38
2023-05-07T06:25:08.293Z,88.17
2023-05-07T06:27:37.398Z,86.92
2023-05-07T06:30:07.245Z,86.56
2023-05-07T06:32:34.224Z,85.08
2023-05-07T06:35:03.812Z,83.20
2023-05-07T06:37:35.296Z,83.92
2023-05-07T06:40:05.590Z,82.82
2023-05-07T06:42:37.292Z,85.80
2023-05-07T06:45:05.094Z,85.86
2023-05-07T06:47:39.611Z,84.63
2023-05-07T06:50:07.606Z,83.99
2023-05-07T06:52:34.512Z,84.47
2023-05-07T06:55:03.715Z,83.62
2023-05-07T06:57:35.173Z,84.65
2023-05-07T07:00:08.018Z,84.93
2023-05-07T07:02:34.913Z,83.02
2023-05-07T07:05:01.865Z,82.13
2023-05-07T07:07:31.486Z,83.81
2023-05-07T07:09:58.330Z,83.53
2023-05-07T07:12:27.576Z,83.51
2023-05-07T07:14:55.112Z,83.89
2023-05-07T07:17:22.256Z,83.96
2023-05-07T07:19:51.403Z,83.31
2023-05-07T07:22:18.245Z,83.11
2023-05-07T07:24:45.090Z,83.08
2023-05-07T07:27:14.980Z,82.95
2023-05-07T07:29:41.815Z,82.51
2023-05-07T07:32:12.631Z,82.48
2023-05-07T07:34:39.479Z,80.96
2023-05-07T07:37:08.551Z,81.04
2023-05-07T07:39:36.158Z,80.55
2023-05-07T07:42:03.035Z,81.88
2023-05-07T07:44:34.984Z,81.48
2023-05-07T07:47:04.355Z,82.07
2023-05-07T07:49:31.206Z,81.18
2023-05-07T07:52:00.985Z,79.93
2023-05-07T07:54:27.880Z,78.03
2023-05-07T07:56:54.910Z,78.36
2023-05-07T07:59:21.773Z,79.36
2023-05-07T08:01:52.324Z,79.32
2023-05-07T08:04:24.271Z,79.38
2023-05-07T08:06:51.226Z,79.82
2023-05-07T08:09:18.225Z,79.71
2023-05-07T08:11:45.086Z,79.93
2023-05-07T08:14:12.753Z,81.21
2023-05-07T08:16:41.724Z,82.16
2023-05-07T08:19:08.709Z,81.31
2023-05-07T08:21:40.756Z,79.76
2023-05-07T08:24:10.192Z,81.68
2023-05-07T08:26:37.386Z,83.16
2023-05-07T08:29:04.246Z,83.30
2023-05-07T08:31:31.132Z,82.17
2023-05-07T08:33:59.103Z,82.16
2023-05-07T08:36:29.521Z,80.38
2023-05-07T08:38:58.913Z,79.20
2023-05-07T08:41:25.991Z,79.50
2023-05-07T08:43:53.144Z,78.02
2023-05-07T08:46:23.727Z,76.84
2023-05-07T08:48:52.405Z,77.17
2023-05-07T08:51:22.046Z,77.79
2023-05-07T08:53:56.040Z,78.90
2023-05-07T08:56:22.975Z,78.45
2023-05-07T08:58:52.613Z,77.71
2023-05-07T09:01:21.769Z,76.76
2023-05-07T09:03:49.003Z,76.88
2023-05-07T09:06:16.648Z,77.16
2023-05-07T09:08:54.627Z,77.56
2023-05-07T09:11:23.825Z,77.86
2023-05-07T09:13:56.810Z,78.48
2023-05-07T09:16:24.762Z,78.53
2023-05-07T09:18:55.970Z,78.36
2023-05-07T09:21:25.407Z,75.09
2023-05-07T09:23:53.979Z,75.07
2023-05-07T09:26:26.115Z,76.02
2023-05-07T09:28:55.521Z,76.26
2023-05-07T09:31:24.560Z,75.51
2023-05-07T09:33:57.165Z,75.96
2023-05-07T09:36:24.235Z,75.16
2023-05-07T09:38:57.549Z,76.29
2023-05-07T09:41:24.767Z,75.49
2023-05-07T09:43:56.104Z,75.91
2023-05-07T09:46:30.963Z,76.93
2023-05-07T09:48:59.828Z,76.32
2023-05-07T09:51:35.400Z,74.74
2023-05-07T09:54:04.456Z,74.34
2023-05-07T09:56:34.517Z,75.25
2023-05-07T09:59:02.199Z,74.44
2023-05-07T10:01:29.305Z,74.12
2023-05-07T10:03:58.584Z,73.82
2023-05-07T10:06:28.967Z,74.49
2023-05-07T10:08:57.487Z,74.76
2023-05-07T10:11:27.391Z,74.68
2023-05-07T10:13:55.153Z,74.46
2023-05-07T10:16:22.783Z,73.97
2023-05-07T10:18:51.061Z,73.17
2023-05-07T10:21:24.238Z,72.67
2023-05-07T10:24:07.808Z,72.77
2023-05-07T10:26:39.414Z,71.34
2023-05-07T10:29:19.043Z,72.81
2023-05-07T10:31:57.475Z,72.14
2023-05-07T10:34:35.503Z,72.29
2023-05-07T10:37:03.560Z,71.83
2023-05-07T10:39:33.550Z,69.95
2023-05-07T10:42:11.761Z,70.50
2023-05-07T10:44:39.073Z,70.59
2023-05-07T10:47:11.774Z,71.22
2023-05-07T10:50:07.672Z,72.35
2023-05-07T10:52:36.913Z,71.97
2023-05-07T10:55:19.888Z,71.94
2023-05-07T10:57:49.387Z,70.25
2023-05-07T11:00:38.126Z,70.39
2023-05-07T11:03:07.996Z,70.06
2023-05-07T11:05:38.835Z,70.47
2023-05-07T11:08:09.650Z,70.52
2023-05-07T11:10:57.019Z,69.41
2023-05-07T11:13:47.210Z,70.53
2023-05-07T11:16:22.056Z,67.22
2023-05-07T11:18:51.539Z,66.84
2023-05-07T11:21:47.868Z,64.32
2023-05-07T11:24:18.104Z,63.40
2023-05-07T11:26:50.126Z,64.30
2023-05-07T11:29:23.308Z,62.02
2023-05-07T11:31:55.877Z,60.24
2023-05-07T11:34:27.397Z,59.99
2023-05-07T11:36:54.639Z,61.12
2023-05-07T11:39:36.995Z,61.99
2023-05-07T11:42:04.195Z,62.17
2023-05-07T11:44:49.193Z,61.69
2023-05-07T11:47:20.623Z,61.27
2023-05-07T11:49:56.253Z,60.30
2023-05-07T11:52:25.480Z,59.18
2023-05-07T11:54:55.726Z,59.46
2023-05-07T11:57:24.245Z,59.28
2023-05-07T11:59:58.787Z,59.14
2023-05-07T12:02:27.194Z,59.30
2023-05-07T12:04:55.982Z,58.69
2023-05-07T12:07:25.074Z,59.91
2023-05-07T12:09:54.739Z,60.40
2023-05-07T12:12:24.025Z,61.73
2023-05-07T12:14:51.377Z,60.44
2023-05-07T12:17:18.583Z,60.74
2023-05-07T12:19:46.549Z,61.03
2023-05-07T12:22:14.006Z,60.82
2023-05-07T12:24:58.465Z,60.75
2023-05-07T12:27:27.039Z,60.43
2023-05-07T12:30:00.426Z,58.61
2023-05-07T12:32:38.231Z,58.30
2023-05-07T12:35:10.296Z,61.01
2023-05-07T12:37:39.573Z,58.96
2023-05-07T12:40:17.563Z,56.03
2023-05-07T12:42:46.405Z,53.65
2023-05-07T12:45:20.382Z,54.23
2023-05-07T12:47:48.348Z,56.87
2023-05-07T12:50:19.495Z,56.06
2023-05-07T12:52:50.155Z,54.33
2023-05-07T12:55:20.423Z,53.98
2023-05-07T12:57:51.404Z,53.60
2023-05-07T13:00:22.280Z,54.04
2023-05-07T13:02:49.250Z,53.82
2023-05-07T13:05:16.147Z,52.65
2023-05-07T13:07:55.210Z,53.31
2023-05-07T13:10:25.981Z,55.31
2023-05-07T13:12:53.717Z,55.43
2023-05-07T13:15:21.896Z,53.37
2023-05-07T13:17:49.007Z,52.53
2023-05-07T13:20:16.485Z,52.78
2023-05-07T13:22:46.356Z,52.82
2023-05-07T13:25:16.333Z,52.50
2023-05-07T13:27:51.534Z,54.11
2023-05-07T13:30:24.048Z,52.95
2023-05-07T13:32:54.832Z,53.02
2023-05-07T13:35:22.272Z,53.72
2023-05-07T13:37:53.291Z,51.30
2023-05-07T13:40:22.847Z,51.45
2023-05-07T13:42:51.442Z,51.23
2023-05-07T13:45:22.056Z,51.38
2023-05-07T13:47:51.687Z,51.59
2023-05-07T13:50:21.554Z,51.85
2023-05-07T13:52:52.069Z,50.96
2023-05-07T13:55:22.552Z,51.47
2023-05-07T13:57:57.052Z,49.59
2023-05-07T14:00:28.729Z,50.10
2023-05-07T14:02:57.123Z,50.85
2023-05-07T14:05:24.851Z,51.78
2023-05-07T14:07:53.090Z,52.98
2023-05-07T14:10:20.456Z,51.51
2023-05-07T14:12:48.128Z,50.85
2023-05-07T14:15:15.843Z,51.17
2023-05-07T14:17:45.471Z,51.56
2023-05-07T14:20:17.251Z,51.73
2023-05-07T14:22:47.341Z,51.58
2023-05-07T14:25:19.300Z,50.80
2023-05-07T14:27:48.492Z,50.96
2023-05-07T14:30:15.535Z,50.90
2023-05-07T14:32:45.010Z,50.88
2023-05-07T14:35:12.531Z,50.87
2023-05-07T14:37:39.852Z,49.91
2023-05-07T14:40:07.848Z,49.87
2023-05-07T14:42:34.913Z,49.14
2023-05-07T14:45:03.313Z,49.03
2023-05-07T14:47:30.303Z,49.86
2023-05-07T14:49:58.345Z,50.75
2023-05-07T14:52:25.696Z,48.18
2023-05-07T14:54:55.644Z,48.48
2023-05-07T14:57:23.022Z,47.73
2023-05-07T14:59:50.169Z,47.89
2023-05-07T15:02:20.965Z,46.99
2023-05-07T15:04:48.616Z,46.50
2023-05-07T15:07:18.591Z,46.88
2023-05-07T15:09:46.128Z,47.35
2023-05-07T15:12:13.107Z,48.51
2023-05-07T15:14:40.804Z,48.37
2023-05-07T15:17:10.432Z,48.58
2023-05-07T15:19:37.768Z,47.78
2023-05-07T15:22:04.821Z,48.19
2023-05-07T15:24:32.222Z,48.07
2023-05-07T15:26:59.265Z,48.60
2023-05-07T15:29:26.250Z,48.99
2023-05-07T15:31:53.356Z,48.70
2023-05-07T15:34:20.407Z,48.41
2023-05-07T15:37:07.364Z,48.15
2023-05-07T15:40:04.110Z,47.75
2023-05-07T15:42:40.339Z,47.32
2023-05-07T15:45:14.654Z,48.16
2023-05-07T15:47:47.298Z,49.43
2023-05-07T15:50:20.328Z,50.48
2023-05-07T15:52:51.213Z,49.81
2023-05-07T15:55:18.370Z,49.29
2023-05-07T15:57:47.788Z,49.47
2023-05-07T16:00:18.959Z,49.50
2023-05-07T16:02:45.991Z,49.64
2023-05-07T16:05:13.962Z,49.02
2023-05-07T16:07:44.383Z,48.83
2023-05-07T16:10:14.906Z,48.12
2023-05-07T16:12:44.547Z,49.32
2023-05-07T16:15:12.165Z,49.40
2023-05-07T16:17:39.166Z,50.09
2023-05-07T16:20:09.510Z,50.02
2023-05-07T16:22:38.887Z,50.09
2023-05-07T16:25:06.756Z,50.09
2023-05-07T16:27:33.716Z,50.41
2023-05-07T16:30:05.188Z,50.42
2023-05-07T16:32:32.100Z,49.67
2023-05-07T16:34:59.092Z,49.21
2023-05-07T16:37:25.940Z,49.48
2023-05-07T16:39:53.228Z,49.03
2023-05-07T16:42:20.079Z,48.48
2023-05-07T16:44:47.321Z,49.31
2023-05-07T16:47:17.397Z,49.71
2023-05-07T16:49:44.433Z,49.25
2023-05-07T16:52:11.316Z,49.53
2023-05-07T16:54:38.392Z,50.25
2023-05-07T16:57:05.262Z,50.46
2023-05-07T16:59:35.272Z,50.55
2023-05-07T17:02:02.207Z,50.44
2023-05-07T17:04:32.574Z,51.03
2023-05-07T17:07:00.158Z,49.87
2023-05-07T17:09:27.618Z,49.87
2023-05-07T17:11:54.662Z,50.13
2023-05-07T17:14:21.589Z,50.53
2023-05-07T17:16:48.512Z,51.34
2023-05-07T17:19:17.904Z,50.47
2023-05-07T17:21:44.934Z,49.74
2023-05-07T17:24:14.859Z,50.08
2023-05-07T17:26:43.038Z,49.82
2023-05-07T17:29:10.402Z,49.47
2023-05-07T17:31:37.301Z,49.48
2023-05-07T17:34:04.298Z,50.04
2023-05-07T17:36:31.501Z,49.96
2023-05-07T17:38:58.857Z,50.15
2023-05-07T17:41:28.297Z,50.89
2023-05-07T17:43:55.248Z,51.16
2023-05-07T17:46:22.244Z,51.04
2023-05-07T17:48:52.074Z,52.05
2023-05-07T17:51:19.051Z,52.44
2023-05-07T17:53:50.312Z,53.28
2023-05-07T17:56:17.261Z,52.82
2023-05-07T17:58:58.060Z,54.13
2023-05-07T18:01:25.557Z,53.67
2023-05-07T18:03:52.751Z,53.29
2023-05-07T18:06:23.205Z,53.83
2023-05-07T18:08:50.170Z,53.79
2023-05-07T18:11:17.039Z,53.63
2023-05-07T18:13:43.939Z,54.20
2023-05-07T18:16:10.953Z,53.93
2023-05-07T18:18:40.586Z,54.25
2023-05-07T18:21:15.199Z,53.75
2023-05-07T18:23:42.097Z,53.60
2023-05-07T18:26:11.552Z,52.60
2023-05-07T18:28:38.516Z,53.58
2023-05-07T18:31:05.925Z,53.04
2023-05-07T18:33:33.030Z,53.78
2023-05-07T18:36:02.347Z,54.02
2023-05-07T18:38:31.414Z,53.67
2023-05-07T18:41:08.918Z,54.02
2023-05-07T18:43:36.054Z,53.75
2023-05-07T18:46:03.027Z,54.16
2023-05-07T18:48:32.402Z,53.92
2023-05-07T18:50:59.324Z,54.95
2023-05-07T18:53:26.197Z,54.70
2023-05-07T18:56:00.825Z,55.09
2023-05-07T18:58:30.428Z,54.96
2023-05-07T19:01:00.338Z,54.75
2023-05-07T19:03:27.914Z,54.96
2023-05-07T19:05:55.841Z,55.59
2023-05-07T19:08:22.714Z,55.39
2023-05-07T19:10:49.538Z,55.80
2023-05-07T19:13:18.656Z,55.42
2023-05-07T19:15:48.233Z,56.31
2023-05-07T19:18:15.236Z,57.08
2023-05-07T19:20:42.094Z,57.64
2023-05-07T19:23:10.383Z,56.94
2023-05-07T19:25:37.486Z,56.61
2023-05-07T19:28:06.878Z,56.77
2023-05-07T19:30:33.815Z,56.80
2023-05-07T19:33:03.142Z,56.37
2023-05-07T19:35:33.102Z,56.39
2023-05-07T19:38:03.296Z,57.45
2023-05-07T19:40:30.239Z,57.34
2023-05-07T19:42:57.271Z,57.92
2023-05-07T19:45:24.152Z,57.73
2023-05-07T19:47:51.136Z,57.72
2023-05-07T19:50:20.802Z,57.89
2023-05-07T19:52:50.114Z,57.87
2023-05-07T19:55:17.363Z,58.24
2023-05-07T19:57:49.816Z,57.95
2023-05-07T20:00:17.208Z,58.64
2023-05-07T20:02:44.170Z,58.73
2023-05-07T20:05:12.577Z,59.05
2023-05-07T20:07:43.727Z,58.72
2023-05-07T20:10:11.456Z,58.62
2023-05-07T20:12:38.641Z,58.98
2023-05-07T20:15:06.316Z,59.91
2023-05-07T20:17:35.402Z,60.73
2023-05-07T20:20:02.353Z,60.71
2023-05-07T20:22:32.758Z,60.08
2023-05-07T20:25:02.636Z,60.57
2023-05-07T20:27:34.448Z,61.06
2023-05-07T20:30:01.745Z,61.35
2023-05-07T20:32:31.021Z,61.64
2023-05-07T20:34:57.885Z,61.86
2023-05-07T20:37:27.298Z,61.42
2023-05-07T20:39:54.134Z,61.42
2023-05-07T20:42:26.669Z,62.08
2023-05-07T20:44:53.688Z,61.53
2023-05-07T20:47:20.602Z,61.31
2023-05-07T20:49:52.538Z,61.41
2023-05-07T20:52:21.788Z,62.03
2023-05-07T20:54:51.182Z,62.56
2023-05-07T20:57:19.692Z,62.38
2023-05-07T20:59:46.713Z,62.43
2023-05-07T21:02:18.701Z,63.27
2023-05-07T21:04:45.869Z,63.41
2023-05-07T21:07:13.000Z,63.75
2023-05-07T21:09:42.491Z,64.29
2023-05-07T21:12:09.360Z,64.64
2023-05-07T21:14:38.628Z,64.46
2023-05-07T21:17:07.135Z,64.69
2023-05-07T21:19:34.263Z,65.20
2023-05-07T21:22:01.273Z,65.10
2023-05-07T21:24:28.203Z,64.70
2023-05-07T21:27:00.816Z,65.10
2023-05-07T21:29:27.796Z,66.63
2023-05-07T21:31:57.257Z,66.90
2023-05-07T21:34:24.330Z,66.19
2023-05-07T21:36:53.817Z,67.65
2023-05-07T21:39:25.306Z,67.92
2023-05-07T21:41:54.399Z,67.44
2023-05-07T21:44:21.264Z,66.96
2023-05-07T21:46:48.334Z,67.50
2023-05-07T21:49:19.273Z,68.31
2023-05-07T21:51:46.310Z,68.40
2023-05-07T21:54:16.844Z,68.50
2023-05-07T21:56:43.780Z,68.73
2023-05-07T21:59:10.660Z,68.06
2023-05-07T22:01:37.548Z,69.16
2023-05-07T22:04:05.006Z,68.91
2023-05-07T22:06:36.652Z,68.84
2023-05-07T22:09:05.630Z,69.06
2023-05-07T22:11:37.163Z,69.89
2023-05-07T22:14:04.103Z,69.82
2023-05-07T22:16:31.026Z,69.51
2023-05-07T22:19:00.425Z,69.17
2023-05-07T22:21:27.420Z,69.92
2023-05-07T22:23:54.274Z,69.52
2023-05-07T22:26:26.491Z,69.56
2023-05-07T22:28:55.413Z,68.71
2023-05-07T22:31:24.396Z,69.51
2023-05-07T22:33:53.413Z,69.38
2023-05-07T22:36:20.413Z,68.78
2023-05-07T22:38:47.306Z,69.91
2023-05-07T22:41:17.166Z,70.49
2023-05-07T22:43:44.156Z,69.44
2023-05-07T22:46:13.577Z,69.55
2023-05-07T22:48:40.461Z,69.40
2023-05-07T22:51:12.614Z,69.58
2023-05-07T22:53:39.564Z,69.27
2023-05-07T22:56:07.689Z,69.82
2023-05-07T22:58:37.056Z,70.70
2023-05-07T23:01:04.279Z,70.67
2023-05-07T23:03:32.210Z,69.71
2023-05-07T23:05:59.226Z,70.57
2023-05-07T23:08:26.176Z,69.02
2023-05-07T23:10:53.072Z,69.34
2023-05-07T23:13:22.219Z,70.53
2023-05-07T23:15:50.666Z,70.40
2023-05-07T23:18:17.536Z,70.84
2023-05-07T23:20:44.585Z,71.85
2023-05-07T23:23:15.977Z,71.18
2023-05-07T23:25:46.972Z,71.29
2023-05-07T23:28:18.470Z,71.24
2023-05-07T23:30:47.562Z,72.01
2023-05-07T23:33:14.412Z,71.65
2023-05-07T23:35:41.353Z,69.87
2023-05-07T23:38:12.796Z,70.37
2023-05-07T23:40:39.673Z,70.46
2023-05-07T23:43:06.527Z,69.98
2023-05-07T23:45:33.403Z,69.43
2023-05-07T23:48:00.376Z,70.47
2023-05-07T23:50:27.319Z,69.52
2023-05-07T23:52:54.152Z,69.90
2023-05-07T23:55:24.181Z,69.41
2023-05-07T23:57:51.043Z,70.27
